createdAt,value
2023-05-21T00:05:24.059Z,77985.53
2023-05-21T00:15:28.376Z,77976.38
2023-05-21T00:25:31.578Z,77958.53
2023-05-21T00:35:36.124Z,77952.22
2023-05-21T00:45:39.824Z,77934.22
2023-05-21T00:55:44.447Z,77943.69
2023-05-21T01:05:48.965Z,77921.66
2023-05-21T01:15:54.768Z,77922.66
2023-05-21T01:26:00.295Z,77903.78
2023-05-21T01:36:09.870Z,77892.94
2023-05-21T01:46:18.277Z,77886.78
2023-05-21T01:56:23.156Z,77885.63
2023-05-21T02:06:27.638Z,77908.38
2023-05-21T02:16:30.793Z,77926.09
2023-05-21T02:26:35.613Z,77930.09
2023-05-21T02:36:38.683Z,77924.38
2023-05-21T02:46:43.049Z,77943.78
2023-05-21T02:56:46.325Z,77951.22
2023-05-21T03:06:51.865Z,77956.38
2023-05-21T03:16:55.033Z,77956.97
2023-05-21T03:27:01.100Z,77933.06
2023-05-21T03:37:04.315Z,77933.81
2023-05-21T03:47:10.277Z,77926.63
2023-05-21T03:57:13.874Z,77945.53
2023-05-21T04:07:19.216Z,77942.09
2023-05-21T04:17:22.419Z,77943.81
2023-05-21T04:27:27.924Z,77928.22
2023-05-21T04:37:31.538Z,77931.81
2023-05-21T04:47:36.110Z,77950.66
2023-05-21T04:57:40.123Z,77960.94
2023-05-21T05:07:45.798Z,77985.53
2023-05-21T05:17:50.538Z,77979.25
2023-05-21T05:27:55.185Z,77989.66
2023-05-21T05:37:58.285Z,78013.56
2023-05-21T05:48:02.960Z,78039.75
2023-05-21T05:58:06.755Z,78072.94
2023-05-21T06:08:23.380Z,78086.75
2023-05-21T06:18:26.398Z,78098.22
2023-05-21T06:28:31.268Z,78147.41
2023-05-21T06:38:35.447Z,78189.75
2023-05-21T06:48:39.885Z,78215.50
2023-05-21T06:58:42.767Z,78244.69
2023-05-21T07:08:49.592Z,78291.94
2023-05-21T07:18:52.997Z,78332.19
2023-05-21T07:28:57.548Z,78386.03
2023-05-21T07:39:01.036Z,78393.72
2023-05-21T07:49:06.149Z,78434.22
2023-05-21T07:59:09.253Z,78468.09
2023-05-21T08:09:14.559Z,78517.41
2023-05-21T08:19:17.810Z,78480.72
2023-05-21T08:29:22.292Z,78513.03
2023-05-21T08:39:25.528Z,78547.44
2023-05-21T08:49:35.728Z,78550.88
2023-05-21T08:59:43.302Z,78630.94
2023-05-21T09:09:58.163Z,78648.69
2023-05-21T09:20:13.596Z,78676.81
2023-05-21T09:30:26.022Z,78686.56
2023-05-21T09:40:46.276Z,78661.31
2023-05-21T09:50:50.891Z,78697.00
2023-05-21T10:00:54.235Z,78699.28
2023-05-21T10:10:58.577Z,78762.16
2023-05-21T10:21:02.336Z,78767.47
2023-05-21T10:31:07.839Z,78794.56
2023-05-21T10:41:12.587Z,78859.28
2023-05-21T10:51:25.035Z,78835.41
2023-05-21T11:01:30.242Z,78900.63
2023-05-21T11:11:46.195Z,78956.47
2023-05-21T11:21:52.289Z,78983.53
2023-05-21T11:32:02.966Z,78991.59
2023-05-21T11:42:06.416Z,79031.22
2023-05-21T11:52:12.058Z,79100.63
2023-05-21T12:02:18.879Z,79082.34
2023-05-21T12:12:25.694Z,79160.50
2023-05-21T12:22:29.910Z,79108.44
2023-05-21T12:32:34.421Z,79113.97
2023-05-21T12:42:40.123Z,79105.34
2023-05-21T12:52:45.583Z,79107.16
2023-05-21T13:02:48.962Z,79140.28
2023-05-21T13:12:53.378Z,79173.13
2023-05-21T13:22:56.652Z,79188.56
2023-05-21T13:33:00.971Z,79226.97
2023-05-21T13:43:04.249Z,79220.88
2023-05-21T13:53:08.976Z,79318.03
2023-05-21T14:03:12.291Z,79438.63
2023-05-21T14:13:20.035Z,79486.63
2023-05-21T14:23:23.362Z,79459.53
2023-05-21T14:33:27.727Z,79492.94
2023-05-21T14:43:30.760Z,79365.78
2023-05-21T14:53:35.134Z,79521.03
2023-05-21T15:03:38.175Z,79443.91
2023-05-21T15:13:42.652Z,79434.72
2023-05-21T15:23:47.406Z,79378.72
2023-05-21T15:33:51.836Z,79313.44
2023-05-21T15:43:55.033Z,79317.94
2023-05-21T15:53:59.697Z,79328.19
2023-05-21T16:04:03.225Z,79281.91
2023-05-21T16:14:07.793Z,79208.78
2023-05-21T16:24:10.774Z,79211.09
2023-05-21T16:34:15.405Z,79183.97
2023-05-21T16:44:20.219Z,79198.56
2023-05-21T16:54:24.791Z,79191.44
2023-05-21T17:04:27.818Z,79143.84
2023-05-21T17:14:34.331Z,79160.50
2023-05-21T17:24:37.946Z,79147.19
2023-05-21T17:34:42.317Z,79155.91
2023-05-21T17:44:45.252Z,79120.16
2023-05-21T17:54:49.598Z,79129.47
2023-05-21T18:04:52.656Z,79119.63
2023-05-21T18:14:57.145Z,79121.22
2023-05-21T18:25:00.445Z,79043.97
2023-05-21T18:35:05.260Z,78993.88
2023-05-21T18:45:10.294Z,78944.97
2023-05-21T18:55:15.450Z,78900.84
2023-05-21T19:05:18.496Z,78867.34
2023-05-21T19:15:22.975Z,78815.31
2023-05-21T19:25:26.450Z,78809.34
2023-05-21T19:35:31.342Z,78754.03
2023-05-21T19:45:34.551Z,78730.72
2023-05-21T19:55:38.972Z,78691.03
2023-05-21T20:05:41.936Z,78666.59
2023-05-21T20:15:48.013Z,78629.22
2023-05-21T20:25:51.190Z,78593.53
2023-05-21T20:35:55.564Z,78545.16
2023-05-21T20:46:00.800Z,78503.06
2023-05-21T20:56:08.372Z,78482.31
2023-05-21T21:06:12.286Z,78447.47
2023-05-21T21:16:16.726Z,78436.63
2023-05-21T21:26:19.842Z,78398.19
2023-05-21T21:36:24.234Z,78379.88
2023-05-21T21:46:27.179Z,78378.22
2023-05-21T21:56:32.048Z,78355.78
2023-05-21T22:06:35.042Z,78335.88
2023-05-21T22:16:41.566Z,78329.00
2023-05-21T22:26:44.844Z,78309.09
2023-05-21T22:36:49.227Z,78303.25
2023-05-21T22:46:52.282Z,78308.31
2023-05-21T22:56:56.731Z,78283.19
2023-05-21T23:06:59.903Z,78285.41
2023-05-21T23:17:04.540Z,78271.06
2023-05-21T23:27:07.944Z,78254.13
2023-05-21T23:37:12.295Z,78236.38
2023-05-21T23:47:15.295Z,78225.81
2023-05-21T23:57:19.576Z,78209.78
